Time,TemperatureF,DewpointF,PressureIn,WindDirection,WindDirectionDegrees,WindSpeedMPH,WindSpeedGustMPH,Humidity,HourlyPrecipIn,Conditions,Clouds,dailyrainin,SoftwareType,DateUTC
2013-01-09 00:06:00,27.3,26.1,30.02,South,180,0.0,-999.0,95,-99.99,,,0.00,Acu-Link.com,2013-01-09 05:06:00,
2013-01-09 00:22:00,26.6,25.4,30.02,SW,225,0.0,-999.0,95,-99.99,,,0.00,Acu-Link.com,2013-01-09 05:22:00,
2013-01-09 00:37:00,26.1,25.4,30.02,SSW,202,0.0,-999.0,97,-99.99,,,0.00,Acu-Link.com,2013-01-09 05:37:00,
2013-01-09 00:52:00,27.7,27.0,30.01,South,180,0.0,-999.0,97,-99.99,,,0.00,Acu-Link.com,2013-01-09 05:52:00,
2013-01-09 01:08:00,28.4,26.9,29.99,SSW,202,3.2,-999.0,94,-99.99,,,0.00,Acu-Link.com,2013-01-09 06:08:00,
2013-01-09 01:23:00,29.1,27.3,29.99,South,180,3.2,-999.0,93,-99.99,,,0.00,Acu-Link.com,2013-01-09 06:23:00,
2013-01-09 01:38:00,27.9,26.4,29.98,SW,225,2.7,-999.0,94,-99.99,,,0.00,Acu-Link.com,2013-01-09 06:38:00,
2013-01-09 01:54:00,27.1,26.1,29.98,SSW,202,1.1,-999.0,96,-99.99,,,0.00,Acu-Link.com,2013-01-09 06:54:00,
2013-01-09 02:09:00,28.6,27.4,29.96,SW,225,3.2,-999.0,95,-99.99,,,0.00,Acu-Link.com,2013-01-09 07:09:00,
2013-01-09 02:24:00,27.5,26.3,29.97,SW,225,2.7,-999.0,95,-99.99,,,0.00,Acu-Link.com,2013-01-09 07:24:00,
2013-01-09 02:39:00,28.6,27.4,29.97,South,180,2.7,-999.0,95,-99.99,,,0.00,Acu-Link.com,2013-01-09 07:39:00,
2013-01-09 02:55:00,28.9,27.7,29.96,SSW,202,3.7,-999.0,95,-99.99,,,0.00,Acu-Link.com,2013-01-09 07:55:00,
2013-01-09 03:10:00,29.7,27.9,29.96,SSW,202,4.2,-999.0,93,-99.99,,,0.00,Acu-Link.com,2013-01-09 08:10:00,
2013-01-09 03:25:00,30.0,28.2,29.95,SSW,202,4.7,-999.0,93,-99.99,,,0.00,Acu-Link.com,2013-01-09 08:25:00,
2013-01-09 03:40:00,29.1,27.6,29.95,SSW,202,4.2,-999.0,94,-99.99,,,0.00,Acu-Link.com,2013-01-09 08:40:00,
2013-01-09 03:56:00,29.1,27.6,29.96,SSW,202,3.2,-999.0,94,-99.99,,,0.00,Acu-Link.com,2013-01-09 08:56:00,
2013-01-09 04:11:00,29.3,27.8,29.96,SSW,202,3.7,-999.0,94,-99.99,,,0.00,Acu-Link.com,2013-01-09 09:11:00,
2013-01-09 04:27:00,31.3,29.0,29.94,SW,225,4.2,-999.0,91,-99.99,,,0.00,Acu-Link.com,2013-01-09 09:27:00,
2013-01-09 04:42:00,31.1,28.8,29.92,SSE,157,3.7,-999.0,91,-99.99,,,0.00,Acu-Link.com,2013-01-09 09:42:00,
2013-01-09 04:57:00,31.8,29.5,29.91,SW,225,3.7,-999.0,91,-99.99,,,0.00,Acu-Link.com,2013-01-09 09:57:00,
2013-01-09 05:12:00,32.2,29.6,29.90,SW,225,3.7,-999.0,90,-99.99,,,0.00,Acu-Link.com,2013-01-09 10:12:00,
2013-01-09 05:27:00,32.5,29.9,29.89,SSW,202,4.7,-999.0,90,-99.99,,,0.00,Acu-Link.com,2013-01-09 10:27:00,
2013-01-09 05:43:00,33.1,30.2,29.90,SW,225,4.7,-999.0,89,-99.99,,,0.00,Acu-Link.com,2013-01-09 10:43:00,
2013-01-09 05:58:00,33.8,30.6,29.91,SW,225,6.3,-999.0,88,-99.99,,,0.00,Acu-Link.com,2013-01-09 10:58:00,
2013-01-09 06:13:00,34.0,30.5,29.92,SW,225,7.3,-999.0,87,-99.99,,,0.00,Acu-Link.com,2013-01-09 11:13:00,
2013-01-09 06:29:00,33.8,30.3,29.89,SSW,202,6.3,-999.0,87,-99.99,,,0.00,Acu-Link.com,2013-01-09 11:29:00,
2013-01-09 06:44:00,33.6,30.4,29.87,SSW,202,6.3,-999.0,88,-99.99,,,0.00,Acu-Link.com,2013-01-09 11:44:00,
2013-01-09 07:00:00,33.6,30.7,29.88,SSW,202,5.3,-999.0,89,-99.99,,,0.00,Acu-Link.com,2013-01-09 12:00:00,
2013-01-09 07:15:00,34.0,31.1,29.88,SW,225,5.8,-999.0,89,-99.99,,,0.00,Acu-Link.com,2013-01-09 12:15:00,
2013-01-09 07:30:00,34.0,30.8,29.88,SW,225,6.8,-999.0,88,-99.99,,,0.00,Acu-Link.com,2013-01-09 12:30:00,
2013-01-09 07:46:00,34.2,31.0,29.88,SSW,202,8.9,-999.0,88,-99.99,,,0.00,Acu-Link.com,2013-01-09 12:46:00,
2013-01-09 08:01:00,34.3,30.8,29.89,SW,225,7.8,-999.0,87,-99.99,,,0.00,Acu-Link.com,2013-01-09 13:01:00,
2013-01-09 08:16:00,34.2,30.7,29.89,SSW,202,8.3,-999.0,87,-99.99,,,0.00,Acu-Link.com,2013-01-09 13:16:00,
2013-01-09 08:31:00,34.5,31.0,29.89,WSW,247,8.9,-999.0,87,-99.99,,,0.00,Acu-Link.com,2013-01-09 13:31:00,
2013-01-09 08:47:00,34.9,31.7,29.89,SW,225,7.8,-999.0,88,-99.99,,,0.00,Acu-Link.com,2013-01-09 13:47:00,
2013-01-09 09:02:00,35.6,32.1,29.90,SW,225,8.3,-999.0,87,-99.99,,,0.00,Acu-Link.com,2013-01-09 14:02:00,
2013-01-09 09:17:00,36.1,32.0,29.90,SW,225,8.3,-999.0,85,-99.99,,,0.00,Acu-Link.com,2013-01-09 14:17:00,
2013-01-09 09:33:00,37.0,32.6,29.90,SW,225,9.9,-999.0,84,-99.99,,,0.00,Acu-Link.com,2013-01-09 14:33:00,
2013-01-09 09:48:00,38.7,33.4,29.90,West,270,7.3,-999.0,81,-99.99,,,0.00,Acu-Link.com,2013-01-09 14:48:00,
2013-01-09 10:03:00,40.5,33.9,29.90,WSW,247,5.3,-999.0,77,-99.99,,,0.00,Acu-Link.com,2013-01-09 15:03:00,
2013-01-09 10:19:00,41.0,33.4,29.90,SSW,202,8.9,-999.0,74,-99.99,,,0.00,Acu-Link.com,2013-01-09 15:19:00,
2013-01-09 10:34:00,41.5,33.5,29.91,SSW,202,6.8,-999.0,73,-99.99,,,0.00,Acu-Link.com,2013-01-09 15:34:00,
2013-01-09 10:49:00,42.1,33.4,29.91,SW,225,4.7,-999.0,71,-99.99,,,0.00,Acu-Link.com,2013-01-09 15:49:00,
2013-01-09 11:05:00,42.4,33.0,29.92,SSW,202,7.8,-999.0,69,-99.99,,,0.00,Acu-Link.com,2013-01-09 16:05:00,
2013-01-09 11:20:00,43.0,32.8,29.92,WNW,292,9.4,-999.0,67,-99.99,,,0.00,Acu-Link.com,2013-01-09 16:20:00,
2013-01-09 11:35:00,43.5,32.5,29.93,South,180,8.9,-999.0,65,-99.99,,,0.00,Acu-Link.com,2013-01-09 16:35:00,
2013-01-09 11:50:00,43.5,32.5,29.93,South,180,7.3,-999.0,65,-99.99,,,0.00,Acu-Link.com,2013-01-09 16:50:00,
2013-01-09 12:06:00,43.7,31.9,29.92,WSW,247,4.7,-999.0,63,-99.99,,,0.00,Acu-Link.com,2013-01-09 17:06:00,
2013-01-09 12:21:00,43.7,31.9,29.92,SSW,202,3.7,-999.0,63,-99.99,,,0.00,Acu-Link.com,2013-01-09 17:21:00,
2013-01-09 12:36:00,44.8,31.4,29.91,WNW,292,7.8,-999.0,59,-99.99,,,0.00,Acu-Link.com,2013-01-09 17:36:00,
2013-01-09 12:51:00,45.0,31.1,29.91,WSW,247,7.8,-999.0,58,-99.99,,,0.00,Acu-Link.com,2013-01-09 17:51:00,
2013-01-09 13:06:00,45.3,31.0,29.91,NNW,337,5.8,-999.0,57,-99.99,,,0.00,Acu-Link.com,2013-01-09 18:06:00,
2013-01-09 13:22:00,44.6,29.9,29.91,SSW,202,3.7,-999.0,56,-99.99,,,0.00,Acu-Link.com,2013-01-09 18:22:00,
2013-01-09 13:37:00,45.1,29.9,29.91,SSW,202,6.3,-999.0,55,-99.99,,,0.00,Acu-Link.com,2013-01-09 18:37:00,
2013-01-09 13:52:00,45.0,28.9,29.93,SSW,202,4.7,-999.0,53,-99.99,,,0.00,Acu-Link.com,2013-01-09 18:52:00,
2013-01-09 14:08:00,45.9,27.8,29.93,SW,225,6.3,-999.0,49,-99.99,,,0.00,Acu-Link.com,2013-01-09 19:08:00,
2013-01-09 14:23:00,45.7,27.6,29.93,SW,225,5.8,-999.0,49,-99.99,,,0.00,Acu-Link.com,2013-01-09 19:23:00,
2013-01-09 14:38:00,45.7,27.6,29.93,SW,225,4.7,-999.0,49,-99.99,,,0.00,Acu-Link.com,2013-01-09 19:38:00,
2013-01-09 14:54:00,46.0,27.4,29.94,West,270,10.9,-999.0,48,-99.99,,,0.00,Acu-Link.com,2013-01-09 19:54:00,
2013-01-09 15:09:00,46.6,26.4,29.95,SW,225,7.3,-999.0,45,-99.99,,,0.00,Acu-Link.com,2013-01-09 20:09:00,
2013-01-09 15:24:00,46.6,26.4,29.96,West,270,8.9,-999.0,45,-99.99,,,0.00,Acu-Link.com,2013-01-09 20:24:00,
2013-01-09 15:39:00,46.4,26.2,29.97,South,180,7.8,-999.0,45,-99.99,,,0.00,Acu-Link.com,2013-01-09 20:39:00,
2013-01-09 15:54:00,46.0,24.2,29.98,WSW,247,6.8,-999.0,42,-99.99,,,0.00,Acu-Link.com,2013-01-09 20:54:00,
2013-01-09 16:09:00,45.7,25.1,29.99,NNE,22,9.9,-999.0,44,-99.99,,,0.00,Acu-Link.com,2013-01-09 21:09:00,
2013-01-09 16:24:00,45.0,25.0,30.00,West,270,4.7,-999.0,45,-99.99,,,0.00,Acu-Link.com,2013-01-09 21:24:00,
2013-01-09 16:40:00,45.5,25.4,30.02,West,270,11.4,-999.0,45,-99.99,,,0.00,Acu-Link.com,2013-01-09 21:40:00,
2013-01-09 16:55:00,44.1,24.7,30.02,SW,225,8.9,-999.0,46,-99.99,,,0.00,Acu-Link.com,2013-01-09 21:55:00,
2013-01-09 17:10:00,43.5,24.6,30.03,West,270,6.8,-999.0,47,-99.99,,,0.00,Acu-Link.com,2013-01-09 22:10:00,
2013-01-09 17:26:00,43.2,23.8,30.04,West,270,5.8,-999.0,46,-99.99,,,0.00,Acu-Link.com,2013-01-09 22:26:00,
2013-01-09 17:41:00,42.8,23.5,30.04,SW,225,7.8,-999.0,46,-99.99,,,0.00,Acu-Link.com,2013-01-09 22:41:00,
2013-01-09 17:56:00,42.1,23.8,30.06,SW,225,5.3,-999.0,48,-99.99,,,0.00,Acu-Link.com,2013-01-09 22:56:00,
2013-01-09 18:12:00,41.4,24.6,30.06,SW,225,4.7,-999.0,51,-99.99,,,0.00,Acu-Link.com,2013-01-09 23:12:00,
2013-01-09 18:27:00,41.2,24.5,30.08,WSW,247,8.9,-999.0,51,-99.99,,,0.00,Acu-Link.com,2013-01-09 23:27:00,
2013-01-09 18:42:00,40.6,25.3,30.11,WNW,292,9.9,-999.0,54,-99.99,,,0.00,Acu-Link.com,2013-01-09 23:42:00,
2013-01-09 18:58:00,40.5,25.2,30.12,NW,315,7.3,-999.0,54,-99.99,,,0.00,Acu-Link.com,2013-01-09 23:58:00,
2013-01-09 19:13:00,39.9,25.9,30.13,SW,225,3.7,-999.0,57,-99.99,,,0.00,Acu-Link.com,2013-01-10 00:13:00,
2013-01-09 19:29:00,39.6,26.1,30.15,SW,225,5.8,-999.0,58,-99.99,,,0.00,Acu-Link.com,2013-01-10 00:29:00,
2013-01-09 19:44:00,39.2,26.1,30.17,NNE,22,5.8,-999.0,59,-99.99,,,0.00,Acu-Link.com,2013-01-10 00:44:00,
2013-01-09 19:59:00,38.8,25.7,30.17,East,90,4.2,-999.0,59,-99.99,,,0.00,Acu-Link.com,2013-01-10 00:59:00,
2013-01-09 20:15:00,38.5,25.4,30.19,NNW,337,6.3,-999.0,59,-99.99,,,0.00,Acu-Link.com,2013-01-10 01:15:00,
2013-01-09 20:30:00,37.9,25.3,30.20,West,270,4.7,-999.0,60,-99.99,,,0.00,Acu-Link.com,2013-01-10 01:30:00,
2013-01-09 20:46:00,37.6,25.8,30.20,North,0,5.3,-999.0,62,-99.99,,,0.00,Acu-Link.com,2013-01-10 01:46:00,
2013-01-09 21:02:00,37.4,25.6,30.20,North,0,4.7,-999.0,62,-99.99,,,0.00,Acu-Link.com,2013-01-10 02:02:00,
2013-01-09 21:17:00,37.0,25.6,30.20,NNW,337,4.7,-999.0,63,-99.99,,,0.00,Acu-Link.com,2013-01-10 02:17:00,
2013-01-09 21:33:00,36.9,25.9,30.22,NNE,22,4.2,-999.0,64,-99.99,,,0.00,Acu-Link.com,2013-01-10 02:33:00,
2013-01-09 21:48:00,36.5,25.5,30.22,NNE,22,6.8,-999.0,64,-99.99,,,0.00,Acu-Link.com,2013-01-10 02:48:00,
2013-01-09 22:03:00,36.3,25.7,30.23,SW,225,3.2,-999.0,65,-99.99,,,0.00,Acu-Link.com,2013-01-10 03:03:00,
2013-01-09 22:19:00,35.8,25.6,30.23,West,270,6.3,-999.0,66,-99.99,,,0.00,Acu-Link.com,2013-01-10 03:19:00,
2013-01-09 22:34:00,35.1,25.6,30.26,NNW,337,2.2,-999.0,68,-99.99,,,0.00,Acu-Link.com,2013-01-10 03:34:00,
2013-01-09 22:49:00,34.5,25.4,30.26,NNE,22,1.7,-999.0,69,-99.99,,,0.00,Acu-Link.com,2013-01-10 03:49:00,
2013-01-09 23:04:00,34.0,25.6,30.26,North,0,1.7,-999.0,71,-99.99,,,0.00,Acu-Link.com,2013-01-10 04:04:00,
2013-01-09 23:20:00,33.1,25.1,30.27,North,0,0.0,-999.0,72,-99.99,,,0.00,Acu-Link.com,2013-01-10 04:20:00,
2013-01-09 23:35:00,32.0,25.0,30.27,North,0,0.0,-999.0,75,-99.99,,,0.00,Acu-Link.com,2013-01-10 04:35:00,
2013-01-09 23:50:00,31.3,24.9,30.27,North,0,0.0,-999.0,77,-99.99,,,0.00,Acu-Link.com,2013-01-10 04:50:00,